Time;durP1;ratioP1;P1;durP2;ratioP2;P2;SDS_P1;SDS_P2;PMS_P1;PMS_P2;Temp;Humidity;BMP_temperature;BMP_pressure;BME280_temperature;BME280_humidity;BME280_pressure;Samples;Min_cycle;Max_cycle;Signal;HPM_P1;HPM_P2
2022/04/17 00:01:44;;;;;;;23.88;9.40;;;;;;;8.11;46.54;102954.13;5004527;28;20026;-68
2022/04/17 00:04:10;;;;;;;18.75;9.25;;;;;;;8.08;46.64;102952.50;5000746;28;20022;-68
2022/04/17 00:06:37;;;;;;;13.73;9.05;;;;;;;8.01;46.50;102948.56;5008335;28;20050;-68
2022/04/17 00:09:02;;;;;;;19.15;8.68;;;;;;;7.95;46.86;102940.19;5002615;28;20028;-68
2022/04/17 00:11:27;;;;;;;18.58;9.52;;;;;;;7.95;46.86;102946.34;5004010;28;20030;-68
2022/04/17 00:13:54;;;;;;;13.55;8.93;;;;;;;7.88;47.14;102944.22;5005023;28;20040;-68
2022/04/17 00:16:19;;;;;;;15.02;8.88;;;;;;;7.82;47.18;102942.81;5002790;28;20026;-68
2022/04/17 00:18:45;;;;;;;17.33;9.52;;;;;;;7.84;47.17;102948.00;5003039;28;20025;-69
2022/04/17 00:21:10;;;;;;;24.77;9.90;;;;;;;7.83;47.43;102955.09;5004548;28;20083;-68
2022/04/17 00:23:35;;;;;;;13.80;8.93;;;;;;;7.85;47.29;102949.69;5004280;28;20446;-68
2022/04/17 00:26:01;;;;;;;19.98;9.57;;;;;;;7.68;47.48;102930.47;5005785;28;20557;-68
2022/04/17 00:28:27;;;;;;;21.77;9.75;;;;;;;7.74;47.79;102951.22;5003608;28;20026;-68
2022/04/17 00:30:52;;;;;;;26.77;9.95;;;;;;;7.80;48.17;102954.41;4999955;28;20041;-68
2022/04/17 00:33:17;;;;;;;26.42;10.90;;;;;;;7.75;48.73;102950.28;5001480;28;20494;-68
2022/04/17 00:35:45;;;;;;;26.73;11.02;;;;;;;7.65;48.76;102941.28;5004518;28;20485;-68
2022/04/17 00:38:11;;;;;;;20.10;10.20;;;;;;;7.63;49.15;102944.97;5005074;28;20026;-68
2022/04/17 00:40:36;;;;;;;18.88;9.95;;;;;;;7.66;49.22;102944.75;5003937;28;20087;-68
2022/04/17 00:43:01;;;;;;;19.33;10.57;;;;;;;7.63;49.30;102942.31;5002496;28;20348;-68
2022/04/17 00:45:26;;;;;;;16.30;9.57;;;;;;;7.56;49.67;102935.75;5002465;28;20033;-68
2022/04/17 00:47:52;;;;;;;19.93;10.10;;;;;;;7.56;49.88;102952.44;5002744;28;20092;-68
2022/04/17 00:50:18;;;;;;;24.95;12.50;;;;;;;7.48;50.29;102946.78;5003719;28;20061;-68
2022/04/17 00:52:45;;;;;;;24.40;11.32;;;;;;;7.39;50.46;102931.53;5003986;28;20224;-68
2022/04/17 00:55:12;;;;;;;18.63;10.98;;;;;;;7.40;50.65;102933.22;5006539;28;20035;-67
2022/04/17 00:57:37;;;;;;;24.23;11.68;;;;;;;7.36;50.88;102943.16;4999012;28;20052;-67
2022/04/17 01:00:05;;;;;;;26.05;10.63;;;;;;;7.33;50.85;102946.00;5004427;28;20451;-67
2022/04/17 01:02:30;;;;;;;23.90;10.98;;;;;;;7.30;50.86;102940.91;5005242;28;20389;-67
2022/04/17 01:04:56;;;;;;;21.25;10.75;;;;;;;7.20;51.03;102925.72;5017351;28;20476;-67
2022/04/17 01:07:23;;;;;;;16.00;10.32;;;;;;;7.28;51.28;102941.94;5007997;28;20107;-67
2022/04/17 01:09:50;;;;;;;16.98;10.77;;;;;;;7.19;51.34;102932.78;5008205;28;20034;-67
2022/04/17 01:12:17;;;;;;;19.02;10.65;;;;;;;7.17;51.39;102952.31;5007420;28;20036;-68
2022/04/17 01:14:44;;;;;;;13.88;10.70;;;;;;;7.06;51.85;102950.38;5009090;28;20503;-68
2022/04/17 01:17:10;;;;;;;18.97;10.83;;;;;;;7.03;51.70;102945.28;5006358;28;20044;-68
2022/04/17 01:19:37;;;;;;;23.88;10.65;;;;;;;7.06;51.72;102951.22;5008107;28;20100;-68
2022/04/17 01:22:07;;;;;;;15.43;10.05;;;;;;;6.93;51.67;102936.22;5009696;28;20045;-68
2022/04/17 01:27:18;;;;;;;18.03;11.27;;;;;;;6.91;51.74;102943.38;5008076;28;20088;-68
2022/04/17 01:29:44;;;;;;;15.73;10.27;;;;;;;6.88;51.95;102947.06;5006654;28;20077;-68
2022/04/17 01:32:10;;;;;;;14.83;10.20;;;;;;;6.86;52.12;102942.81;5006620;28;20469;-68
2022/04/17 01:34:37;;;;;;;17.37;9.90;;;;;;;6.82;52.38;102947.44;5006208;28;20021;-68
2022/04/17 01:37:03;;;;;;;20.87;10.73;;;;;;;6.74;52.38;102940.00;5008774;28;20025;-68
2022/04/17 01:39:29;;;;;;;22.53;10.20;;;;;;;6.77;52.20;102936.31;5005818;28;20033;-68
2022/04/17 01:41:55;;;;;;;18.60;10.47;;;;;;;6.76;52.45;102942.56;5009214;28;20390;-68
2022/04/17 01:44:22;;;;;;;22.63;10.37;;;;;;;6.71;52.68;102947.28;5005677;28;20038;-68
2022/04/17 01:46:48;;;;;;;14.63;10.13;;;;;;;6.73;53.11;102940.94;5006673;28;20076;-68
2022/04/17 01:49:17;;;;;;;15.83;9.57;;;;;;;6.75;53.08;102941.69;5005938;28;20141;-68
2022/04/17 01:51:44;;;;;;;15.68;9.73;;;;;;;6.78;53.02;102935.38;5008554;28;20071;-68
2022/04/17 01:54:12;;;;;;;30.27;10.50;;;;;;;6.73;53.06;102935.66;5004512;28;20021;-68
2022/04/17 01:56:38;;;;;;;18.53;9.80;;;;;;;6.70;53.08;102942.94;5006802;28;20052;-68
2022/04/17 01:59:06;;;;;;;17.20;10.00;;;;;;;6.62;53.28;102943.38;5004840;28;20069;-68
2022/04/17 02:01:32;;;;;;;17.17;9.80;;;;;;;6.48;53.20;102936.31;5006846;28;20600;-68
2022/04/17 02:03:58;;;;;;;19.33;9.70;;;;;;;6.47;53.53;102931.13;5007501;28;20029;-68
2022/04/17 02:06:23;;;;;;;16.87;9.77;;;;;;;6.40;53.74;102930.66;5012355;28;20116;-68
2022/04/17 02:08:51;;;;;;;15.00;9.47;;;;;;;6.39;53.92;102928.97;5011183;28;20432;-68
2022/04/17 02:11:16;;;;;;;14.37;9.50;;;;;;;6.34;53.86;102925.72;5005058;28;20573;-68
2022/04/17 02:13:42;;;;;;;15.17;9.63;;;;;;;6.36;53.84;102934.41;5006342;28;20101;-68
2022/04/17 02:16:07;;;;;;;15.20;9.40;;;;;;;6.30;53.67;102929.47;5011461;28;20434;-68
2022/04/17 02:18:33;;;;;;;14.60;9.50;;;;;;;6.20;53.83;102925.72;5006090;28;20041;-68
2022/04/17 02:20:59;;;;;;;11.60;9.07;;;;;;;6.15;54.20;102925.13;5007411;28;20364;-68
2022/04/17 02:23:24;;;;;;;15.87;9.37;;;;;;;6.08;54.51;102923.81;5010185;28;20033;-68
2022/04/17 02:25:49;;;;;;;14.53;9.93;;;;;;;6.03;54.65;102915.28;5007910;28;20033;-68
2022/04/17 02:28:15;;;;;;;16.87;9.73;;;;;;;5.92;54.74;102913.28;5005294;28;20018;-68
2022/04/17 02:30:40;;;;;;;38.83;11.07;;;;;;;5.89;55.00;102924.88;5006241;28;20401;-68
2022/04/17 02:33:06;;;;;;;16.83;10.20;;;;;;;5.85;55.53;102928.59;5004296;28;20061;-68
2022/04/17 02:35:31;;;;;;;13.13;10.00;;;;;;;5.82;55.68;102923.50;5007938;28;20030;-68
2022/04/17 02:37:56;;;;;;;20.97;10.10;;;;;;;5.80;55.78;102917.47;5006493;28;20482;-68
2022/04/17 02:40:22;;;;;;;14.93;9.93;;;;;;;5.73;56.25;102912.63;5006422;28;20360;-68
2022/04/17 02:42:48;;;;;;;16.73;9.67;;;;;;;5.62;56.76;102902.69;5004935;28;20057;-67
2022/04/17 02:45:14;;;;;;;15.60;10.73;;;;;;;5.72;57.04;102922.31;5007085;28;20080;-68
2022/04/17 02:47:46;;;;;;;14.63;10.17;;;;;;;5.72;56.91;102913.56;5008408;28;20508;-68
2022/04/17 02:50:15;;;;;;;17.43;10.50;;;;;;;5.70;57.18;102918.91;5004626;28;20052;-68
2022/04/17 02:52:41;;;;;;;14.98;10.25;;;;;;;5.65;57.73;102906.94;5011587;28;20333;-68
2022/04/17 02:55:07;;;;;;;18.10;10.43;;;;;;;5.71;57.43;102914.50;5004328;28;20497;-68
2022/04/17 02:57:32;;;;;;;18.00;10.33;;;;;;;5.73;57.29;102909.97;5005120;28;20037;-68
2022/04/17 02:59:58;;;;;;;12.60;9.80;;;;;;;5.72;57.20;102913.56;5004822;28;20025;-68
2022/04/17 03:07:52;;;;;;;15.83;10.47;;;;;;;5.66;57.63;102896.31;5003016;28;20108;-68
2022/04/17 03:10:18;;;;;;;14.43;10.30;;;;;;;5.56;57.81;102900.41;5006534;28;20041;-68
2022/04/17 03:12:44;;;;;;;15.43;10.47;;;;;;;5.46;58.09;102894.78;5005124;28;20138;-68
2022/04/17 03:15:09;;;;;;;16.40;10.30;;;;;;;5.41;58.62;102899.47;5004063;28;20052;-68
2022/04/17 03:17:35;;;;;;;17.30;10.20;;;;;;;5.38;58.85;102901.44;5006308;28;20018;-68
2022/04/17 03:20:01;;;;;;;16.60;10.20;;;;;;;5.28;58.97;102894.06;5009604;28;20420;-68
2022/04/17 03:22:26;;;;;;;14.27;10.67;;;;;;;5.37;59.13;102903.22;5005544;28;20076;-68
2022/04/17 03:24:52;;;;;;;15.63;10.10;;;;;;;5.37;59.19;102899.75;5010946;28;20025;-68
2022/04/17 03:27:18;;;;;;;17.13;10.13;;;;;;;5.38;58.91;102898.81;5002383;28;20053;-68
2022/04/17 03:29:43;;;;;;;15.17;10.10;;;;;;;5.32;59.09;102896.53;5004071;28;20026;-68
2022/04/17 03:32:08;;;;;;;14.07;9.73;;;;;;;5.27;59.26;102884.47;5005899;28;20129;-68
2022/04/17 03:34:34;;;;;;;15.53;10.13;;;;;;;5.20;59.10;102892.78;5003374;28;20104;-67
2022/04/17 03:36:59;;;;;;;12.73;9.60;;;;;;;5.13;59.04;102892.28;5009145;28;20152;-68
2022/04/17 03:39:25;;;;;;;15.23;9.67;;;;;;;5.10;59.00;102887.19;5012963;28;20034;-68
2022/04/17 03:41:51;;;;;;;14.43;10.00;;;;;;;5.09;58.81;102890.75;5013805;28;20021;-68
2022/04/17 03:44:17;;;;;;;12.97;9.47;;;;;;;5.09;58.76;102890.75;5007487;28;20072;-67
2022/04/17 03:46:43;;;;;;;15.63;9.87;;;;;;;5.04;58.61;102886.66;5010781;28;20080;-67
2022/04/17 03:49:08;;;;;;;13.33;9.60;;;;;;;5.03;58.66;102883.19;5010142;28;20029;-67
2022/04/17 03:51:34;;;;;;;17.90;10.87;;;;;;;5.03;58.62;102884.97;5019759;28;20022;-67
2022/04/17 03:53:59;;;;;;;14.43;10.23;;;;;;;5.00;58.60;102886.00;5022736;28;20173;-68
2022/04/17 03:56:24;;;;;;;16.73;9.97;;;;;;;4.97;58.73;102878.28;5018913;28;20037;-68
2022/04/17 03:58:50;;;;;;;13.87;9.57;;;;;;;4.98;59.01;102882.59;5008315;28;20417;-67
2022/04/17 04:01:16;;;;;;;15.37;10.50;;;;;;;4.96;58.79;102882.69;5012244;28;20382;-68
2022/04/17 04:03:41;;;;;;;14.47;9.93;;;;;;;4.93;58.96;102880.22;5007003;28;20026;-67
2022/04/17 04:06:06;;;;;;;15.87;10.37;;;;;;;4.95;58.94;102881.00;5006617;28;20108;-68
2022/04/17 04:08:31;;;;;;;14.90;10.27;;;;;;;4.96;58.92;102879.19;5001864;28;20072;-67
2022/04/17 04:10:57;;;;;;;15.07;10.57;;;;;;;4.91;58.90;102875.94;5004789;28;20562;-67
2022/04/17 04:13:22;;;;;;;15.73;10.03;;;;;;;4.86;58.88;102867.44;5004494;28;20375;-68
2022/04/17 04:15:47;;;;;;;15.13;9.90;;;;;;;4.85;59.17;102863.97;5002428;28;20049;-67
2022/04/17 04:18:13;;;;;;;12.13;9.83;;;;;;;4.82;58.92;102855.41;5004710;28;20041;-67
2022/04/17 04:20:38;;;;;;;12.77;9.37;;;;;;;4.77;59.26;102866.19;5005009;28;20401;-66
2022/04/17 04:23:03;;;;;;;14.33;9.03;;;;;;;4.78;59.02;102859.13;5004172;28;20018;-66
2022/04/17 04:25:29;;;;;;;15.40;8.60;;;;;;;4.84;58.55;102864.06;5005051;28;20532;-67
2022/04/17 04:30:38;;;;;;;13.80;8.80;;;;;;;4.80;58.00;102857.25;5003071;28;20080;-66
2022/04/17 04:33:03;;;;;;;11.97;8.13;;;;;;;4.81;57.84;102861.59;5006975;28;20026;-66
2022/04/17 04:35:29;;;;;;;14.50;8.73;;;;;;;4.81;57.61;102851.91;5008100;28;20049;-66
2022/04/17 04:37:56;;;;;;;12.50;8.30;;;;;;;4.82;57.46;102858.88;5005017;28;20045;-67
2022/04/17 04:40:21;;;;;;;12.77;9.13;;;;;;;4.77;57.32;102841.66;5008263;28;20091;-66
2022/04/17 04:42:48;;;;;;;13.07;8.67;;;;;;;4.83;57.25;102855.31;5007347;28;20025;-66
2022/04/17 04:47:57;;;;;;;14.53;8.60;;;;;;;4.79;57.09;102851.16;5008077;28;20472;-66
2022/04/17 04:50:22;;;;;;;20.33;8.87;;;;;;;4.77;57.02;102850.38;5007849;28;20030;-66
2022/04/17 04:52:47;;;;;;;13.77;8.67;;;;;;;4.83;57.17;102849.19;5007467;28;20022;-66
2022/04/17 04:55:13;;;;;;;15.47;9.27;;;;;;;4.82;57.36;102845.72;5009436;28;20042;-66
2022/04/17 04:57:38;;;;;;;11.90;8.67;;;;;;;4.76;57.69;102846.06;5008771;28;20025;-66
2022/04/17 05:00:05;;;;;;;18.33;9.50;;;;;;;4.69;57.92;102851.75;5007537;28;20034;-67
2022/04/17 05:02:30;;;;;;;14.73;9.90;;;;;;;4.71;58.31;102857.78;5007349;28;20080;-66
2022/04/17 05:04:56;;;;;;;11.83;9.30;;;;;;;4.65;58.49;102851.06;5007247;28;20029;-66
2022/04/17 05:07:21;;;;;;;13.93;9.27;;;;;;;4.67;58.87;102857.09;5011655;28;20029;-66
2022/04/17 05:09:46;;;;;;;13.17;9.70;;;;;;;4.60;59.12;102845.19;5012168;28;20417;-67
2022/04/17 05:12:11;;;;;;;13.40;9.60;;;;;;;4.66;59.26;102853.63;5009099;28;20084;-67
2022/04/17 05:14:41;;;;;;;16.47;9.17;;;;;;;4.68;59.56;102856.16;5003626;28;20408;-66
2022/04/17 05:17:06;;;;;;;14.07;9.98;;;;;;;4.74;59.84;102858.47;5004925;28;20060;-67
2022/04/17 05:19:31;;;;;;;13.50;10.00;;;;;;;4.75;60.31;102865.41;5008934;28;20038;-66
2022/04/17 05:21:58;;;;;;;14.73;9.77;;;;;;;4.79;60.32;102860.84;5007066;28;20072;-66
2022/04/17 05:24:25;;;;;;;21.03;10.67;;;;;;;4.85;60.50;102861.34;5007024;28;20037;-66
2022/04/17 05:26:51;;;;;;;13.97;10.07;;;;;;;4.92;60.58;102862.72;5007140;28;20026;-66
2022/04/17 05:29:16;;;;;;;16.57;10.30;;;;;;;4.98;60.67;102867.66;5005447;28;20504;-66
2022/04/17 05:31:41;;;;;;;16.27;10.23;;;;;;;5.08;60.84;102861.88;5007708;28;20029;-67
2022/04/17 05:34:07;;;;;;;24.00;10.40;;;;;;;5.11;60.99;102856.41;5006119;28;20438;-67
2022/04/17 05:36:32;;;;;;;13.67;10.10;;;;;;;5.21;60.83;102842.69;5009294;28;20046;-66
2022/04/17 05:38:57;;;;;;;23.30;10.80;;;;;;;5.33;60.93;102853.44;5006950;28;20029;-66
2022/04/17 05:41:24;;;;;;;15.03;10.50;;;;;;;5.49;61.23;102859.50;5007387;28;20041;-66
2022/04/17 05:43:50;;;;;;;16.23;10.10;;;;;;;5.61;60.86;102858.81;5007330;28;20026;-66
2022/04/17 05:46:16;;;;;;;17.13;9.93;;;;;;;5.71;60.74;102856.50;5006079;28;20037;-66
2022/04/17 05:48:42;;;;;;;17.13;9.83;;;;;;;5.82;60.87;102862.84;5005239;28;20033;-67
2022/04/17 05:51:07;;;;;;;16.73;10.07;;;;;;;5.88;60.86;102854.59;5008701;28;20501;-66
2022/04/17 05:53:33;;;;;;;17.20;10.70;;;;;;;5.99;60.77;102856.59;5012389;28;20033;-66
2022/04/17 05:55:59;;;;;;;15.23;10.03;;;;;;;6.10;60.54;102858.63;5012690;28;20584;-67
2022/04/17 05:58:24;;;;;;;13.80;9.67;;;;;;;6.19;60.41;102853.63;5005560;28;20534;-66
2022/04/17 06:00:50;;;;;;;15.40;9.53;;;;;;;6.27;60.02;102847.88;5007023;28;20045;-67
2022/04/17 06:03:15;;;;;;;14.03;8.80;;;;;;;6.44;59.94;102849.50;5006362;28;20033;-66
2022/04/17 06:05:41;;;;;;;11.97;8.33;;;;;;;6.57;58.74;102855.72;5006803;28;20033;-67
2022/04/17 06:08:07;;;;;;;12.97;8.63;;;;;;;6.74;58.51;102855.50;5005698;28;20028;-67
2022/04/17 06:10:32;;;;;;;14.50;8.60;;;;;;;6.79;58.29;102848.16;5010009;28;20060;-67
2022/04/17 06:12:57;;;;;;;10.03;8.03;;;;;;;6.94;57.73;102848.97;5005822;28;20060;-67
2022/04/17 06:15:23;;;;;;;9.83;7.10;;;;;;;6.97;57.12;102845.28;5004027;28;20029;-67
2022/04/17 06:17:48;;;;;;;13.70;7.27;;;;;;;7.12;56.84;102853.06;5001262;28;20516;-67
2022/04/17 06:20:14;;;;;;;8.77;6.80;;;;;;;7.18;56.11;102854.47;5000616;28;20034;-67
2022/04/17 06:22:40;;;;;;;12.20;6.80;;;;;;;7.28;55.56;102857.38;4999735;28;20033;-67
2022/04/17 06:25:10;;;;;;;8.17;6.40;;;;;;;7.34;54.94;102855.19;5006280;28;20048;-67
2022/04/17 06:27:46;;;;;;;10.00;6.83;;;;;;;7.36;54.64;102858.56;5008698;28;20034;-67
2022/04/17 06:30:14;;;;;;;12.13;6.87;;;;;;;7.36;54.25;102847.16;5004267;28;20465;-67
2022/04/17 06:32:40;;;;;;;11.33;6.80;;;;;;;7.36;53.88;102847.16;5008138;28;20048;-67
2022/04/17 06:35:07;;;;;;;13.30;7.00;;;;;;;7.33;53.82;102844.72;5022696;28;20041;-67
2022/04/17 06:37:47;;;;;;;10.37;6.50;;;;;;;7.44;53.94;102855.41;5016276;28;20034;-67
2022/04/17 06:40:17;;;;;;;11.37;6.60;;;;;;;7.49;53.82;102850.66;5008596;28;20030;-67
2022/04/17 06:42:43;;;;;;;8.97;6.67;;;;;;;7.52;53.48;102853.13;5007840;28;20064;-67
2022/04/17 06:45:09;;;;;;;9.70;6.40;;;;;;;7.52;53.40;102853.13;5014384;28;20479;-67
2022/04/17 06:47:34;;;;;;;8.37;6.60;;;;;;;7.62;53.47;102846.28;5009512;28;20112;-67
2022/04/17 06:49:59;;;;;;;12.57;6.90;;;;;;;7.72;53.71;102843.84;5013313;28;20032;-67
2022/04/17 06:52:25;;;;;;;11.63;7.00;;;;;;;7.94;53.53;102849.41;5016741;28;20627;-67
2022/04/17 06:54:50;;;;;;;11.10;6.43;;;;;;;7.91;53.54;102835.53;5004533;28;20034;-67
2022/04/17 06:57:15;;;;;;;10.40;6.22;;;;;;;8.14;53.61;102850.69;5011770;28;20036;-67
2022/04/17 06:59:40;;;;;;;10.13;6.18;;;;;;;8.14;53.06;102850.69;5016198;28;20069;-67
2022/04/17 07:02:06;;;;;;;8.60;6.05;;;;;;;8.29;52.96;102852.28;5014319;28;20045;-67
2022/04/17 07:04:31;;;;;;;9.40;6.28;;;;;;;8.33;52.27;102852.91;5006738;28;20232;-67
2022/04/17 07:06:57;;;;;;;9.30;6.25;;;;;;;8.47;52.45;102844.03;5001781;28;20068;-67
2022/04/17 07:09:22;;;;;;;8.90;5.65;;;;;;;8.47;52.22;102847.53;4998252;28;20464;-67
2022/04/17 07:11:47;;;;;;;9.60;5.80;;;;;;;8.47;51.98;102836.94;5002510;28;20018;-67
2022/04/17 07:14:14;;;;;;;7.85;6.15;;;;;;;8.60;51.94;102835.13;5003901;28;20046;-67
2022/04/17 07:16:40;;;;;;;9.23;5.70;;;;;;;8.74;51.86;102835.94;5004273;28;20029;-67
2022/04/17 07:19:06;;;;;;;9.20;5.88;;;;;;;8.67;51.77;102832.88;5004851;28;20030;-68
2022/04/17 07:21:31;;;;;;;7.93;6.10;;;;;;;8.76;51.56;102832.22;5006306;28;20030;-67
2022/04/17 07:23:57;;;;;;;8.15;5.97;;;;;;;8.80;51.42;102827.56;5000421;28;20040;-67
2022/04/17 07:26:23;;;;;;;10.73;5.97;;;;;;;8.93;51.58;102825.69;5007735;28;20041;-67
2022/04/17 07:28:49;;;;;;;9.75;6.10;;;;;;;8.99;51.67;102822.63;5004003;28;20026;-67
2022/04/17 07:31:14;;;;;;;8.13;6.18;;;;;;;9.11;51.19;102823.53;5012625;28;20033;-67
2022/04/17 07:33:40;;;;;;;8.68;5.70;;;;;;;9.16;50.72;102826.69;5003915;28;20117;-67
2022/04/17 07:36:05;;;;;;;10.95;5.82;;;;;;;9.24;51.20;102825.16;5012192;28;20097;-67
2022/04/17 07:38:30;;;;;;;6.47;5.80;;;;;;;9.34;50.87;102820.03;5007705;28;20571;-67
2022/04/17 07:40:56;;;;;;;7.75;5.47;;;;;;;9.49;50.55;102810.06;5008910;28;20033;-67
2022/04/17 07:43:22;;;;;;;7.18;5.47;;;;;;;9.57;50.78;102816.50;5004257;28;20164;-67
2022/04/17 07:45:47;;;;;;;8.85;5.75;;;;;;;9.71;50.31;102817.25;5005038;28;20038;-67
2022/04/17 07:48:13;;;;;;;9.02;5.57;;;;;;;9.70;50.01;102829.69;5002997;28;20063;-67
2022/04/17 07:50:38;;;;;;;5.82;5.00;;;;;;;9.76;49.62;102815.94;5003498;28;20057;-66
2022/04/17 07:53:03;;;;;;;7.50;5.28;;;;;;;9.93;49.60;102814.66;5010819;28;20160;-67
2022/04/17 07:55:29;;;;;;;6.55;5.18;;;;;;;9.98;49.43;102817.81;5002621;28;20457;-67
2022/04/17 08:00:32;;;;;;;8.60;5.28;;;;;;;10.28;49.36;102805.81;5002282;28;20037;-67
2022/04/17 08:03:10;;;;;;;7.82;5.03;;;;;;;10.42;48.77;102794.97;4998765;28;20337;-68
2022/04/17 08:05:39;;;;;;;8.02;4.80;;;;;;;10.47;48.31;102811.38;4998404;28;20037;-61
2022/04/17 08:08:06;;;;;;;5.20;4.57;;;;;;;10.50;48.02;102809.31;5004751;28;20400;-60
2022/04/17 08:10:33;;;;;;;12.32;4.65;;;;;;;10.48;47.92;102805.94;5005860;28;20021;-61
2022/04/17 08:12:58;;;;;;;9.60;4.88;;;;;;;10.73;47.93;102793.34;5005822;28;20014;-60
2022/04/17 08:15:23;;;;;;;6.18;4.68;;;;;;;10.80;47.63;102802.50;5008244;28;20092;-60
2022/04/17 08:17:48;;;;;;;7.13;4.50;;;;;;;10.79;46.75;102798.16;5004310;28;20030;-61
2022/04/17 08:20:14;;;;;;;6.43;4.63;;;;;;;10.85;46.56;102798.50;5006118;28;20437;-60
2022/04/17 08:22:39;;;;;;;7.53;4.45;;;;;;;10.85;46.53;102793.19;5007583;28;20026;-60
2022/04/17 08:25:05;;;;;;;8.00;4.45;;;;;;;10.84;46.11;102801.28;5011698;28;20056;-60
2022/04/17 08:27:30;;;;;;;6.35;4.80;;;;;;;10.82;46.19;102795.25;5012053;28;20025;-60
2022/04/17 08:29:55;;;;;;;5.60;4.50;;;;;;;10.88;46.03;102801.88;5006311;28;20410;-61
2022/04/17 08:32:21;;;;;;;8.07;4.60;;;;;;;10.85;46.06;102795.00;5004090;28;21919;-61
2022/04/17 08:34:46;;;;;;;7.20;4.32;;;;;;;11.04;46.23;102802.34;5000075;28;20037;-60
2022/04/17 08:37:11;;;;;;;5.97;4.30;;;;;;;11.05;45.53;102801.38;5005970;28;20026;-60
2022/04/17 08:39:36;;;;;;;5.53;4.38;;;;;;;11.12;45.43;102791.91;5004257;28;20033;-61
2022/04/17 08:42:05;;;;;;;9.43;4.38;;;;;;;11.29;45.65;102791.38;5011868;28;20026;-60
2022/04/17 08:44:30;;;;;;;6.05;4.20;;;;;;;11.45;45.75;102796.22;5007789;28;20473;-60
2022/04/17 08:46:56;;;;;;;6.85;4.30;;;;;;;11.52;45.30;102791.25;5017190;28;20515;-61
2022/04/17 08:49:23;;;;;;;7.05;4.03;;;;;;;11.67;44.85;102792.63;5012589;28;20034;-62
2022/04/17 08:51:49;;;;;;;6.68;4.20;;;;;;;11.76;44.48;102790.00;5000973;28;20033;-62
2022/04/17 08:54:16;;;;;;;7.13;4.20;;;;;;;11.97;44.11;102787.38;5000844;28;20029;-62
2022/04/17 08:56:41;;;;;;;9.02;4.28;;;;;;;12.02;44.39;102778.97;5012410;28;20052;-62
2022/04/17 08:59:07;;;;;;;5.57;4.15;;;;;;;12.09;44.06;102788.97;5014303;28;20493;-62
2022/04/17 09:01:36;;;;;;;5.32;4.55;;;;;;;12.20;43.67;102782.72;5010878;28;20036;-62
2022/04/17 09:04:02;;;;;;;6.07;3.90;;;;;;;12.20;43.11;102776.56;5022846;28;20021;-62
2022/04/17 09:06:28;;;;;;;4.45;3.80;;;;;;;12.27;43.11;102775.88;5018849;28;20033;-62
2022/04/17 09:09:02;;;;;;;4.65;4.10;;;;;;;12.41;43.29;102786.16;5015519;28;20053;-62
2022/04/17 09:11:28;;;;;;;7.32;4.20;;;;;;;12.48;43.21;102775.81;5013375;28;20033;-62
2022/04/17 09:13:56;;;;;;;6.22;4.10;;;;;;;12.60;42.61;102769.38;5018646;28;20026;-61
2022/04/17 09:16:35;;;;;;;5.05;3.88;;;;;;;12.59;41.88;102774.84;5013439;28;20113;-62
2022/04/17 09:19:12;;;;;;;4.30;3.88;;;;;;;12.77;42.09;102764.38;5006602;28;20025;-62
2022/04/17 09:21:37;;;;;;;7.70;4.05;;;;;;;12.97;42.00;102768.75;5006883;28;20421;-62
2022/04/17 09:24:19;;;;;;;10.93;4.55;;;;;;;13.25;41.96;102759.09;5014080;28;20551;-62
2022/04/17 09:26:50;;;;;;;6.75;4.00;;;;;;;13.42;41.76;102770.91;5021816;28;20025;-62
2022/04/17 09:29:25;;;;;;;6.15;3.80;;;;;;;13.56;41.34;102757.09;5016053;28;20041;-62
2022/04/17 09:31:57;;;;;;;8.07;4.60;;;;;;;13.81;41.19;102755.63;5027074;28;20024;-62
2022/04/17 09:34:23;;;;;;;8.00;4.30;;;;;;;13.87;41.04;102755.91;5021098;28;20033;-61
2022/04/17 09:36:55;;;;;;;5.00;3.78;;;;;;;13.76;39.76;102750.75;5014691;28;20537;-62
2022/04/17 09:39:20;;;;;;;7.75;3.90;;;;;;;13.90;40.17;102744.94;5019656;28;20030;-62
2022/04/17 09:41:57;;;;;;;7.55;3.83;;;;;;;14.00;40.17;102744.91;5025652;28;20079;-61
2022/04/17 09:44:54;;;;;;;4.07;3.67;;;;;;;14.18;40.01;102737.81;5015644;28;20022;-62
2022/04/17 09:47:25;;;;;;;7.43;4.22;;;;;;;13.98;39.81;102738.88;5006043;28;20077;-62
2022/04/17 09:49:55;;;;;;;7.57;4.40;;;;;;;14.22;40.19;102733.00;5007336;28;20029;-61
2022/04/17 09:52:22;;;;;;;8.15;4.28;;;;;;;14.48;40.38;102726.00;5011571;28;20047;-62
2022/04/17 09:54:49;;;;;;;10.00;4.10;;;;;;;14.49;39.77;102721.50;5010308;28;20026;-62
2022/04/17 09:57:27;;;;;;;5.20;4.00;;;;;;;14.63;38.96;102720.13;5003532;28;20041;-62
2022/04/17 09:59:53;;;;;;;9.15;4.50;;;;;;;14.71;39.52;102722.88;5000215;28;20090;-61
2022/04/17 10:02:19;;;;;;;5.38;3.83;;;;;;;14.70;39.04;102705.16;5004938;28;20393;-61
2022/04/17 10:04:45;;;;;;;8.18;3.88;;;;;;;14.96;39.30;102708.75;5005843;28;20018;-62
2022/04/17 10:07:11;;;;;;;5.70;4.00;;;;;;;14.98;39.20;102705.91;5004623;28;20026;-62
2022/04/17 10:09:37;;;;;;;7.10;3.70;;;;;;;14.98;38.49;102703.25;5013136;28;20025;-62
2022/04/17 10:12:05;;;;;;;6.60;3.97;;;;;;;15.18;38.00;102700.25;5011867;28;20025;-62
2022/04/17 10:14:31;;;;;;;6.40;4.28;;;;;;;15.22;37.92;102697.25;5006406;28;20101;-61
2022/04/17 10:16:57;;;;;;;7.47;3.70;;;;;;;15.28;37.76;102696.63;5002402;28;20481;-61
2022/04/17 10:19:24;;;;;;;8.77;3.80;;;;;;;15.20;37.22;102692.06;5005716;28;20072;-61
2022/04/17 10:21:51;;;;;;;5.72;3.85;;;;;;;15.26;37.74;102688.75;5016045;28;20111;-62
2022/04/17 10:24:18;;;;;;;7.25;4.00;;;;;;;15.47;37.73;102688.41;5014235;28;20029;-62
2022/04/17 10:26:47;;;;;;;5.63;3.63;;;;;;;15.35;37.15;102678.97;5008113;28;20034;-62
2022/04/17 10:29:37;;;;;;;4.55;3.45;;;;;;;15.42;36.72;102674.66;5007889;28;20022;-61
2022/04/17 10:32:33;;;;;;;6.85;3.50;;;;;;;15.47;36.89;102665.16;5005906;28;20029;-62
2022/04/17 10:35:09;;;;;;;5.30;3.72;;;;;;;15.52;36.87;102661.16;5006604;28;20038;-62
2022/04/17 10:38:02;;;;;;;4.32;3.13;;;;;;;15.71;36.74;102642.22;5009446;28;20033;-62
2022/04/17 10:40:28;;;;;;;4.63;3.05;;;;;;;15.71;36.50;102640.38;5013997;28;20123;-61
2022/04/17 10:42:55;;;;;;;6.40;3.20;;;;;;;16.00;36.46;102637.31;5006131;28;20410;-62
2022/04/17 10:45:22;;;;;;;5.55;3.45;;;;;;;16.11;36.10;102612.03;5012142;28;20030;-62
2022/04/17 10:48:12;;;;;;;6.32;3.67;;;;;;;16.26;35.95;102631.03;5012621;28;20034;-62
2022/04/17 10:50:49;;;;;;;5.07;3.30;;;;;;;16.36;35.77;102637.91;5007422;28;20029;-62
2022/04/17 10:53:24;;;;;;;4.95;3.08;;;;;;;16.23;34.99;102628.69;5008585;28;20692;-62
2022/04/17 10:56:02;;;;;;;3.28;2.95;;;;;;;16.33;34.69;102624.84;5001973;28;20486;-61
2022/04/17 10:58:54;;;;;;;6.20;3.42;;;;;;;16.41;34.30;102626.69;5002523;28;20478;-62
2022/04/17 11:01:41;;;;;;;4.70;3.00;;;;;;;16.26;34.08;102614.94;5022564;28;20048;-62
2022/04/17 11:04:18;;;;;;;5.93;3.10;;;;;;;16.45;33.81;102617.28;5006056;28;20026;-62
2022/04/17 11:06:44;;;;;;;5.45;3.38;;;;;;;16.67;34.42;102608.63;5007818;28;20030;-62
2022/04/17 11:09:18;;;;;;;9.10;4.18;;;;;;;16.69;34.07;102612.00;5003478;28;20030;-62
2022/04/17 11:11:45;;;;;;;5.82;3.45;;;;;;;16.88;34.39;102583.97;5006896;28;20109;-62
2022/04/17 11:14:11;;;;;;;9.52;3.97;;;;;;;17.12;34.28;102601.91;5005653;28;20091;-62
2022/04/17 11:16:45;;;;;;;9.20;3.60;;;;;;;17.40;35.22;102594.28;5004172;28;20124;-62
2022/04/17 11:19:12;;;;;;;7.22;3.55;;;;;;;17.53;34.57;102589.19;5008065;28;20029;-62
2022/04/17 11:21:43;;;;;;;6.50;3.70;;;;;;;17.56;34.47;102598.75;5004283;28;20030;-62
2022/04/17 11:24:08;;;;;;;5.18;3.47;;;;;;;17.39;32.91;102597.16;5004851;28;20040;-62
2022/04/17 11:26:52;;;;;;;7.03;3.65;;;;;;;17.38;32.42;102582.88;5004300;28;20616;-62
2022/04/17 11:29:32;;;;;;;5.43;3.35;;;;;;;17.45;32.70;102585.72;5007240;28;20044;-62
2022/04/17 11:31:57;;;;;;;17.08;3.65;;;;;;;17.43;32.32;102577.81;5003119;28;20108;-62
2022/04/17 11:34:23;;;;;;;4.20;3.17;;;;;;;17.55;32.11;102576.41;5005762;28;20025;-62
2022/04/17 11:36:49;;;;;;;6.55;3.40;;;;;;;17.67;32.11;102565.31;5005922;28;20068;-62
2022/04/17 11:39:26;;;;;;;6.10;3.60;;;;;;;17.76;32.46;102572.34;5009684;28;20025;-62
2022/04/17 11:41:51;;;;;;;7.90;3.40;;;;;;;17.64;31.08;102556.59;5007398;28;20033;-62